sensor_id;sensor_type;location;lat;lon;timestamp;P1;durP1;ratioP1;P2;durP2;ratioP2
25549;SDS011;13444;50.562;7.262;2023-09-19T00:01:06;2.38;;;1.20;;
25549;SDS011;13444;50.562;7.262;2023-09-19T00:03:36;2.25;;;0.98;;
25549;SDS011;13444;50.562;7.262;2023-09-19T00:06:02;2.35;;;1.02;;
25549;SDS011;13444;50.562;7.262;2023-09-19T00:08:29;2.60;;;1.23;;
25549;SDS011;13444;50.562;7.262;2023-09-19T00:10:56;3.67;;;1.42;;
25549;SDS011;13444;50.562;7.262;2023-09-19T00:13:22;1.55;;;1.10;;
25549;SDS011;13444;50.562;7.262;2023-09-19T00:15:49;3.00;;;1.35;;
25549;SDS011;13444;50.562;7.262;2023-09-19T00:18:15;3.60;;;1.50;;
25549;SDS011;13444;50.562;7.262;2023-09-19T00:20:48;4.20;;;1.38;;
25549;SDS011;13444;50.562;7.262;2023-09-19T00:23:14;2.05;;;1.30;;
25549;SDS011;13444;50.562;7.262;2023-09-19T00:25:40;3.00;;;1.05;;
25549;SDS011;13444;50.562;7.262;2023-09-19T00:28:07;2.85;;;1.60;;
25549;SDS011;13444;50.562;7.262;2023-09-19T00:30:33;3.58;;;1.40;;
25549;SDS011;13444;50.562;7.262;2023-09-19T00:32:59;3.90;;;1.40;;
25549;SDS011;13444;50.562;7.262;2023-09-19T00:35:27;2.97;;;1.60;;
25549;SDS011;13444;50.562;7.262;2023-09-19T00:37:53;2.33;;;1.20;;
25549;SDS011;13444;50.562;7.262;2023-09-19T00:40:19;2.67;;;1.17;;
25549;SDS011;13444;50.562;7.262;2023-09-19T00:42:46;1.40;;;1.15;;
25549;SDS011;13444;50.562;7.262;2023-09-19T00:45:13;1.27;;;1.10;;
25549;SDS011;13444;50.562;7.262;2023-09-19T00:47:44;2.67;;;1.30;;
25549;SDS011;13444;50.562;7.262;2023-09-19T00:50:15;1.98;;;1.20;;
25549;SDS011;13444;50.562;7.262;2023-09-19T00:52:47;2.22;;;1.25;;
25549;SDS011;13444;50.562;7.262;2023-09-19T00:55:14;2.10;;;1.02;;
25549;SDS011;13444;50.562;7.262;2023-09-19T00:57:41;3.88;;;1.45;;
25549;SDS011;13444;50.562;7.262;2023-09-19T01:00:07;1.67;;;1.15;;
25549;SDS011;13444;50.562;7.262;2023-09-19T01:02:37;1.67;;;1.05;;
25549;SDS011;13444;50.562;7.262;2023-09-19T01:05:03;2.00;;;1.20;;
25549;SDS011;13444;50.562;7.262;2023-09-19T01:07:30;2.70;;;1.25;;
25549;SDS011;13444;50.562;7.262;2023-09-19T01:10:00;5.53;;;1.70;;
25549;SDS011;13444;50.562;7.262;2023-09-19T01:22:56;2.17;;;1.42;;
25549;SDS011;13444;50.562;7.262;2023-09-19T01:30:58;2.78;;;1.45;;
25549;SDS011;13444;50.562;7.262;2023-09-19T01:33:25;2.10;;;1.27;;
25549;SDS011;13444;50.562;7.262;2023-09-19T01:35:51;2.90;;;1.65;;
25549;SDS011;13444;50.562;7.262;2023-09-19T01:38:18;2.60;;;1.45;;
25549;SDS011;13444;50.562;7.262;2023-09-19T01:40:47;2.85;;;1.58;;
25549;SDS011;13444;50.562;7.262;2023-09-19T01:43:27;5.55;;;1.70;;
25549;SDS011;13444;50.562;7.262;2023-09-19T01:46:13;5.00;;;1.85;;
25549;SDS011;13444;50.562;7.262;2023-09-19T01:54:05;2.72;;;1.40;;
25549;SDS011;13444;50.562;7.262;2023-09-19T01:56:49;4.57;;;1.70;;
25549;SDS011;13444;50.562;7.262;2023-09-19T01:59:25;6.32;;;1.60;;
25549;SDS011;13444;50.562;7.262;2023-09-19T02:01:56;4.95;;;1.67;;
25549;SDS011;13444;50.562;7.262;2023-09-19T02:04:23;6.20;;;1.80;;
25549;SDS011;13444;50.562;7.262;2023-09-19T02:06:49;8.43;;;2.15;;
25549;SDS011;13444;50.562;7.262;2023-09-19T02:09:14;7.40;;;1.77;;
25549;SDS011;13444;50.562;7.262;2023-09-19T02:11:40;4.55;;;1.73;;
25549;SDS011;13444;50.562;7.262;2023-09-19T02:14:06;4.88;;;1.48;;
25549;SDS011;13444;50.562;7.262;2023-09-19T02:16:33;7.38;;;1.88;;
25549;SDS011;13444;50.562;7.262;2023-09-19T02:19:02;5.57;;;1.70;;
25549;SDS011;13444;50.562;7.262;2023-09-19T02:21:30;6.68;;;2.08;;
25549;SDS011;13444;50.562;7.262;2023-09-19T02:23:57;5.78;;;2.00;;
25549;SDS011;13444;50.562;7.262;2023-09-19T02:26:23;3.28;;;1.58;;
25549;SDS011;13444;50.562;7.262;2023-09-19T02:28:48;4.93;;;1.88;;
25549;SDS011;13444;50.562;7.262;2023-09-19T02:31:14;4.72;;;1.73;;
25549;SDS011;13444;50.562;7.262;2023-09-19T02:33:41;3.65;;;1.40;;
25549;SDS011;13444;50.562;7.262;2023-09-19T02:36:07;3.92;;;1.50;;
25549;SDS011;13444;50.562;7.262;2023-09-19T02:38:33;8.23;;;1.98;;
25549;SDS011;13444;50.562;7.262;2023-09-19T02:40:59;5.00;;;1.38;;
25549;SDS011;13444;50.562;7.262;2023-09-19T02:43:25;7.38;;;1.90;;
25549;SDS011;13444;50.562;7.262;2023-09-19T02:45:50;5.38;;;1.70;;
25549;SDS011;13444;50.562;7.262;2023-09-19T02:48:18;10.27;;;1.63;;
25549;SDS011;13444;50.562;7.262;2023-09-19T02:50:44;3.90;;;1.35;;
25549;SDS011;13444;50.562;7.262;2023-09-19T02:53:09;6.40;;;1.58;;
25549;SDS011;13444;50.562;7.262;2023-09-19T02:55:37;7.40;;;1.90;;
25549;SDS011;13444;50.562;7.262;2023-09-19T02:58:05;7.13;;;1.80;;
25549;SDS011;13444;50.562;7.262;2023-09-19T03:00:39;6.43;;;1.60;;
25549;SDS011;13444;50.562;7.262;2023-09-19T03:03:07;7.10;;;2.10;;
25549;SDS011;13444;50.562;7.262;2023-09-19T03:05:33;6.28;;;1.40;;
25549;SDS011;13444;50.562;7.262;2023-09-19T03:07:59;4.68;;;1.40;;
25549;SDS011;13444;50.562;7.262;2023-09-19T03:10:29;4.25;;;1.50;;
25549;SDS011;13444;50.562;7.262;2023-09-19T03:12:56;4.82;;;1.30;;
25549;SDS011;13444;50.562;7.262;2023-09-19T03:15:22;6.70;;;1.80;;
25549;SDS011;13444;50.562;7.262;2023-09-19T03:17:47;5.05;;;1.70;;
25549;SDS011;13444;50.562;7.262;2023-09-19T03:20:14;2.70;;;1.13;;
25549;SDS011;13444;50.562;7.262;2023-09-19T03:22:45;3.72;;;1.33;;
25549;SDS011;13444;50.562;7.262;2023-09-19T03:25:11;5.10;;;1.63;;
25549;SDS011;13444;50.562;7.262;2023-09-19T03:27:37;3.83;;;1.40;;
25549;SDS011;13444;50.562;7.262;2023-09-19T03:30:04;5.32;;;1.70;;
25549;SDS011;13444;50.562;7.262;2023-09-19T03:32:33;3.92;;;1.65;;
25549;SDS011;13444;50.562;7.262;2023-09-19T03:35:02;6.15;;;1.42;;
25549;SDS011;13444;50.562;7.262;2023-09-19T03:37:31;4.82;;;1.67;;
25549;SDS011;13444;50.562;7.262;2023-09-19T03:40:00;5.65;;;1.75;;
25549;SDS011;13444;50.562;7.262;2023-09-19T03:42:29;4.63;;;1.45;;
25549;SDS011;13444;50.562;7.262;2023-09-19T03:44:56;5.03;;;1.48;;
25549;SDS011;13444;50.562;7.262;2023-09-19T03:47:21;5.10;;;1.73;;
25549;SDS011;13444;50.562;7.262;2023-09-19T03:49:47;6.05;;;1.95;;
25549;SDS011;13444;50.562;7.262;2023-09-19T03:52:13;4.65;;;1.48;;
25549;SDS011;13444;50.562;7.262;2023-09-19T03:54:40;5.22;;;1.83;;
25549;SDS011;13444;50.562;7.262;2023-09-19T03:57:06;7.50;;;2.13;;
25549;SDS011;13444;50.562;7.262;2023-09-19T03:59:32;6.07;;;1.90;;
25549;SDS011;13444;50.562;7.262;2023-09-19T04:01:57;5.22;;;1.80;;
25549;SDS011;13444;50.562;7.262;2023-09-19T04:04:24;3.22;;;1.25;;
25549;SDS011;13444;50.562;7.262;2023-09-19T04:06:50;5.63;;;1.63;;
25549;SDS011;13444;50.562;7.262;2023-09-19T04:09:16;3.35;;;1.25;;
25549;SDS011;13444;50.562;7.262;2023-09-19T04:11:41;4.10;;;1.40;;
25549;SDS011;13444;50.562;7.262;2023-09-19T04:14:07;3.60;;;1.67;;
25549;SDS011;13444;50.562;7.262;2023-09-19T04:16:33;2.53;;;1.10;;
25549;SDS011;13444;50.562;7.262;2023-09-19T04:18:58;3.20;;;1.42;;
25549;SDS011;13444;50.562;7.262;2023-09-19T04:21:24;5.47;;;1.38;;
25549;SDS011;13444;50.562;7.262;2023-09-19T04:23:49;4.60;;;1.70;;
25549;SDS011;13444;50.562;7.262;2023-09-19T04:26:15;4.38;;;1.70;;
25549;SDS011;13444;50.562;7.262;2023-09-19T04:28:41;6.40;;;1.63;;
25549;SDS011;13444;50.562;7.262;2023-09-19T04:31:09;4.53;;;1.58;;
25549;SDS011;13444;50.562;7.262;2023-09-19T04:33:35;9.55;;;1.90;;
25549;SDS011;13444;50.562;7.262;2023-09-19T04:36:01;6.97;;;2.08;;
25549;SDS011;13444;50.562;7.262;2023-09-19T04:38:28;5.22;;;1.80;;
25549;SDS011;13444;50.562;7.262;2023-09-19T04:40:56;7.15;;;1.48;;
25549;SDS011;13444;50.562;7.262;2023-09-19T04:43:23;6.13;;;2.05;;
25549;SDS011;13444;50.562;7.262;2023-09-19T04:45:49;8.73;;;2.10;;
25549;SDS011;13444;50.562;7.262;2023-09-19T04:48:15;8.30;;;2.08;;
25549;SDS011;13444;50.562;7.262;2023-09-19T04:50:41;8.93;;;2.10;;
25549;SDS011;13444;50.562;7.262;2023-09-19T04:53:07;5.60;;;2.05;;
25549;SDS011;13444;50.562;7.262;2023-09-19T04:55:33;10.43;;;2.60;;
25549;SDS011;13444;50.562;7.262;2023-09-19T04:57:59;6.07;;;2.10;;
25549;SDS011;13444;50.562;7.262;2023-09-19T05:00:24;9.40;;;2.10;;
25549;SDS011;13444;50.562;7.262;2023-09-19T05:02:54;7.45;;;2.60;;
25549;SDS011;13444;50.562;7.262;2023-09-19T05:05:24;9.43;;;2.70;;
25549;SDS011;13444;50.562;7.262;2023-09-19T05:07:50;6.65;;;1.95;;
25549;SDS011;13444;50.562;7.262;2023-09-19T05:10:18;6.68;;;1.92;;
25549;SDS011;13444;50.562;7.262;2023-09-19T05:12:44;7.35;;;2.08;;
25549;SDS011;13444;50.562;7.262;2023-09-19T05:15:13;13.80;;;2.58;;
25549;SDS011;13444;50.562;7.262;2023-09-19T05:17:42;8.30;;;2.05;;
25549;SDS011;13444;50.562;7.262;2023-09-19T05:20:16;15.63;;;3.38;;
25549;SDS011;13444;50.562;7.262;2023-09-19T05:22:50;10.98;;;2.47;;
25549;SDS011;13444;50.562;7.262;2023-09-19T05:25:23;8.63;;;2.63;;
25549;SDS011;13444;50.562;7.262;2023-09-19T05:27:49;8.43;;;2.67;;
25549;SDS011;13444;50.562;7.262;2023-09-19T05:30:18;15.15;;;2.90;;
25549;SDS011;13444;50.562;7.262;2023-09-19T05:32:45;12.68;;;3.15;;
25549;SDS011;13444;50.562;7.262;2023-09-19T05:35:10;7.43;;;2.15;;
25549;SDS011;13444;50.562;7.262;2023-09-19T05:37:38;7.20;;;2.20;;
25549;SDS011;13444;50.562;7.262;2023-09-19T05:40:04;9.50;;;2.30;;
25549;SDS011;13444;50.562;7.262;2023-09-19T05:42:34;6.45;;;2.03;;
25549;SDS011;13444;50.562;7.262;2023-09-19T05:45:00;6.65;;;2.47;;
25549;SDS011;13444;50.562;7.262;2023-09-19T05:47:25;7.18;;;1.92;;
25549;SDS011;13444;50.562;7.262;2023-09-19T05:49:51;5.93;;;2.03;;
25549;SDS011;13444;50.562;7.262;2023-09-19T05:52:17;6.53;;;2.20;;
25549;SDS011;13444;50.562;7.262;2023-09-19T05:54:43;5.63;;;2.28;;
25549;SDS011;13444;50.562;7.262;2023-09-19T05:57:09;8.05;;;2.13;;
25549;SDS011;13444;50.562;7.262;2023-09-19T05:59:37;7.57;;;2.20;;
25549;SDS011;13444;50.562;7.262;2023-09-19T06:02:04;8.38;;;2.20;;
25549;SDS011;13444;50.562;7.262;2023-09-19T06:04:31;5.35;;;1.70;;
25549;SDS011;13444;50.562;7.262;2023-09-19T06:06:56;8.45;;;3.17;;
25549;SDS011;13444;50.562;7.262;2023-09-19T06:09:23;11.32;;;2.55;;
25549;SDS011;13444;50.562;7.262;2023-09-19T06:11:48;7.35;;;2.80;;
25549;SDS011;13444;50.562;7.262;2023-09-19T06:14:14;7.95;;;2.20;;
25549;SDS011;13444;50.562;7.262;2023-09-19T06:16:42;6.22;;;2.38;;
25549;SDS011;13444;50.562;7.262;2023-09-19T06:19:08;7.30;;;2.13;;
25549;SDS011;13444;50.562;7.262;2023-09-19T06:21:34;10.05;;;2.58;;
25549;SDS011;13444;50.562;7.262;2023-09-19T06:24:01;7.07;;;2.10;;
25549;SDS011;13444;50.562;7.262;2023-09-19T06:26:27;4.95;;;1.75;;
25549;SDS011;13444;50.562;7.262;2023-09-19T06:28:54;7.07;;;2.08;;
25549;SDS011;13444;50.562;7.262;2023-09-19T06:31:20;6.20;;;2.25;;
25549;SDS011;13444;50.562;7.262;2023-09-19T06:33:48;5.18;;;1.63;;
25549;SDS011;13444;50.562;7.262;2023-09-19T06:36:13;8.13;;;2.25;;
25549;SDS011;13444;50.562;7.262;2023-09-19T06:38:40;10.90;;;2.78;;
25549;SDS011;13444;50.562;7.262;2023-09-19T06:41:06;9.70;;;2.38;;
25549;SDS011;13444;50.562;7.262;2023-09-19T06:43:33;11.10;;;2.78;;
25549;SDS011;13444;50.562;7.262;2023-09-19T06:46:02;4.65;;;2.20;;
25549;SDS011;13444;50.562;7.262;2023-09-19T06:48:28;9.88;;;2.20;;
25549;SDS011;13444;50.562;7.262;2023-09-19T06:50:55;11.40;;;2.90;;
25549;SDS011;13444;50.562;7.262;2023-09-19T06:53:21;9.93;;;2.10;;
25549;SDS011;13444;50.562;7.262;2023-09-19T06:55:49;11.77;;;2.50;;
25549;SDS011;13444;50.562;7.262;2023-09-19T06:58:15;7.57;;;2.50;;
25549;SDS011;13444;50.562;7.262;2023-09-19T07:00:41;7.18;;;2.20;;
25549;SDS011;13444;50.562;7.262;2023-09-19T07:03:07;11.70;;;2.53;;
25549;SDS011;13444;50.562;7.262;2023-09-19T07:05:36;11.48;;;3.08;;
25549;SDS011;13444;50.562;7.262;2023-09-19T07:08:03;8.20;;;2.70;;
25549;SDS011;13444;50.562;7.262;2023-09-19T07:10:31;10.48;;;2.53;;
25549;SDS011;13444;50.562;7.262;2023-09-19T07:13:00;8.57;;;2.53;;
25549;SDS011;13444;50.562;7.262;2023-09-19T07:15:28;8.27;;;2.50;;
25549;SDS011;13444;50.562;7.262;2023-09-19T07:17:55;7.43;;;2.38;;
25549;SDS011;13444;50.562;7.262;2023-09-19T07:20:22;11.50;;;2.83;;
25549;SDS011;13444;50.562;7.262;2023-09-19T07:22:51;13.00;;;2.38;;
25549;SDS011;13444;50.562;7.262;2023-09-19T07:25:17;11.52;;;2.63;;
25549;SDS011;13444;50.562;7.262;2023-09-19T07:27:42;14.40;;;3.28;;
25549;SDS011;13444;50.562;7.262;2023-09-19T07:30:09;7.80;;;2.53;;
25549;SDS011;13444;50.562;7.262;2023-09-19T07:32:36;11.07;;;2.53;;
25549;SDS011;13444;50.562;7.262;2023-09-19T07:35:03;13.90;;;3.05;;
25549;SDS011;13444;50.562;7.262;2023-09-19T07:37:30;10.05;;;2.70;;
25549;SDS011;13444;50.562;7.262;2023-09-19T07:39:58;8.93;;;2.80;;
25549;SDS011;13444;50.562;7.262;2023-09-19T07:42:24;10.63;;;2.40;;
25549;SDS011;13444;50.562;7.262;2023-09-19T07:44:50;16.60;;;3.20;;
25549;SDS011;13444;50.562;7.262;2023-09-19T07:47:16;7.80;;;2.53;;
25549;SDS011;13444;50.562;7.262;2023-09-19T07:49:42;8.65;;;2.47;;
25549;SDS011;13444;50.562;7.262;2023-09-19T07:52:08;14.60;;;2.72;;
25549;SDS011;13444;50.562;7.262;2023-09-19T07:54:35;14.30;;;2.60;;
25549;SDS011;13444;50.562;7.262;2023-09-19T07:57:01;6.72;;;2.85;;
25549;SDS011;13444;50.562;7.262;2023-09-19T07:59:27;10.43;;;2.35;;
25549;SDS011;13444;50.562;7.262;2023-09-19T08:01:53;10.23;;;2.60;;
25549;SDS011;13444;50.562;7.262;2023-09-19T08:04:19;13.35;;;3.30;;
25549;SDS011;13444;50.562;7.262;2023-09-19T08:06:44;9.13;;;2.17;;
25549;SDS011;13444;50.562;7.262;2023-09-19T08:09:10;9.63;;;2.65;;
25549;SDS011;13444;50.562;7.262;2023-09-19T08:11:37;7.50;;;2.15;;
25549;SDS011;13444;50.562;7.262;2023-09-19T08:14:04;6.30;;;2.30;;
25549;SDS011;13444;50.562;7.262;2023-09-19T08:16:31;11.60;;;3.42;;
25549;SDS011;13444;50.562;7.262;2023-09-19T08:18:56;8.63;;;2.53;;
25549;SDS011;13444;50.562;7.262;2023-09-19T08:21:22;9.75;;;2.40;;
25549;SDS011;13444;50.562;7.262;2023-09-19T08:23:49;12.00;;;2.60;;
25549;SDS011;13444;50.562;7.262;2023-09-19T08:26:15;6.80;;;2.33;;
25549;SDS011;13444;50.562;7.262;2023-09-19T08:28:40;8.70;;;2.33;;
25549;SDS011;13444;50.562;7.262;2023-09-19T08:31:06;9.88;;;2.45;;
25549;SDS011;13444;50.562;7.262;2023-09-19T08:33:36;5.53;;;2.22;;
25549;SDS011;13444;50.562;7.262;2023-09-19T08:36:03;10.88;;;2.10;;
25549;SDS011;13444;50.562;7.262;2023-09-19T08:38:30;10.00;;;2.65;;
25549;SDS011;13444;50.562;7.262;2023-09-19T08:40:59;7.45;;;2.72;;
25549;SDS011;13444;50.562;7.262;2023-09-19T08:43:26;8.02;;;2.45;;
25549;SDS011;13444;50.562;7.262;2023-09-19T08:46:11;6.22;;;2.35;;
25549;SDS011;13444;50.562;7.262;2023-09-19T08:48:42;7.65;;;2.30;;
25549;SDS011;13444;50.562;7.262;2023-09-19T08:51:16;9.32;;;2.50;;
25549;SDS011;13444;50.562;7.262;2023-09-19T08:54:06;7.70;;;2.40;;
25549;SDS011;13444;50.562;7.262;2023-09-19T08:56:33;10.00;;;2.67;;
25549;SDS011;13444;50.562;7.262;2023-09-19T08:59:05;9.02;;;2.40;;
25549;SDS011;13444;50.562;7.262;2023-09-19T09:01:34;11.82;;;2.72;;
25549;SDS011;13444;50.562;7.262;2023-09-19T09:04:01;11.98;;;2.58;;
25549;SDS011;13444;50.562;7.262;2023-09-19T09:06:27;5.70;;;2.42;;
25549;SDS011;13444;50.562;7.262;2023-09-19T09:08:53;11.63;;;2.58;;
25549;SDS011;13444;50.562;7.262;2023-09-19T09:11:20;8.20;;;2.30;;
25549;SDS011;13444;50.562;7.262;2023-09-19T09:13:46;6.72;;;2.35;;
25549;SDS011;13444;50.562;7.262;2023-09-19T09:16:12;9.18;;;2.42;;
25549;SDS011;13444;50.562;7.262;2023-09-19T09:18:39;11.10;;;3.10;;
25549;SDS011;13444;50.562;7.262;2023-09-19T09:21:05;11.13;;;2.38;;
25549;SDS011;13444;50.562;7.262;2023-09-19T09:23:31;7.20;;;1.98;;
25549;SDS011;13444;50.562;7.262;2023-09-19T09:25:57;11.48;;;2.50;;
25549;SDS011;13444;50.562;7.262;2023-09-19T09:28:24;6.63;;;2.50;;
25549;SDS011;13444;50.562;7.262;2023-09-19T09:30:51;7.13;;;2.40;;
25549;SDS011;13444;50.562;7.262;2023-09-19T09:33:17;7.93;;;2.50;;
25549;SDS011;13444;50.562;7.262;2023-09-19T09:35:50;8.50;;;2.40;;
25549;SDS011;13444;50.562;7.262;2023-09-19T09:38:21;8.13;;;2.45;;
25549;SDS011;13444;50.562;7.262;2023-09-19T09:40:53;8.00;;;2.42;;
25549;SDS011;13444;50.562;7.262;2023-09-19T09:43:35;6.88;;;2.17;;
25549;SDS011;13444;50.562;7.262;2023-09-19T09:46:06;8.75;;;2.90;;
25549;SDS011;13444;50.562;7.262;2023-09-19T09:48:55;8.43;;;2.40;;
25549;SDS011;13444;50.562;7.262;2023-09-19T09:51:40;6.75;;;2.25;;
25549;SDS011;13444;50.562;7.262;2023-09-19T09:54:17;5.63;;;2.13;;
25549;SDS011;13444;50.562;7.262;2023-09-19T09:56:58;5.20;;;1.85;;
25549;SDS011;13444;50.562;7.262;2023-09-19T10:02:24;7.32;;;2.17;;
25549;SDS011;13444;50.562;7.262;2023-09-19T10:04:57;8.60;;;2.67;;
25549;SDS011;13444;50.562;7.262;2023-09-19T10:07:38;9.25;;;2.40;;
25549;SDS011;13444;50.562;7.262;2023-09-19T10:10:07;8.68;;;2.22;;
25549;SDS011;13444;50.562;7.262;2023-09-19T10:12:47;7.50;;;2.17;;
25549;SDS011;13444;50.562;7.262;2023-09-19T10:15:17;5.88;;;1.98;;
25549;SDS011;13444;50.562;7.262;2023-09-19T10:17:45;9.13;;;2.10;;
25549;SDS011;13444;50.562;7.262;2023-09-19T10:20:18;5.90;;;2.10;;
25549;SDS011;13444;50.562;7.262;2023-09-19T10:23:09;8.85;;;2.35;;
25549;SDS011;13444;50.562;7.262;2023-09-19T10:25:37;12.52;;;2.30;;
25549;SDS011;13444;50.562;7.262;2023-09-19T10:28:05;5.95;;;2.00;;
25549;SDS011;13444;50.562;7.262;2023-09-19T10:30:41;6.18;;;2.17;;
25549;SDS011;13444;50.562;7.262;2023-09-19T10:33:10;6.80;;;2.00;;
25549;SDS011;13444;50.562;7.262;2023-09-19T10:35:38;8.45;;;2.22;;
25549;SDS011;13444;50.562;7.262;2023-09-19T10:38:05;5.63;;;1.70;;
25549;SDS011;13444;50.562;7.262;2023-09-19T10:40:32;4.15;;;1.63;;
25549;SDS011;13444;50.562;7.262;2023-09-19T10:43:02;6.22;;;2.25;;
25549;SDS011;13444;50.562;7.262;2023-09-19T10:45:30;4.95;;;2.20;;
25549;SDS011;13444;50.562;7.262;2023-09-19T10:47:57;4.18;;;1.70;;
25549;SDS011;13444;50.562;7.262;2023-09-19T10:50:23;5.53;;;1.98;;
25549;SDS011;13444;50.562;7.262;2023-09-19T10:52:50;8.43;;;1.88;;
25549;SDS011;13444;50.562;7.262;2023-09-19T10:55:29;6.68;;;2.38;;
25549;SDS011;13444;50.562;7.262;2023-09-19T10:57:56;8.82;;;2.42;;
25549;SDS011;13444;50.562;7.262;2023-09-19T11:00:52;3.72;;;2.05;;
25549;SDS011;13444;50.562;7.262;2023-09-19T11:03:19;6.43;;;2.15;;
25549;SDS011;13444;50.562;7.262;2023-09-19T11:30:37;9.50;;;2.63;;
25549;SDS011;13444;50.562;7.262;2023-09-19T11:33:23;10.30;;;2.30;;
25549;SDS011;13444;50.562;7.262;2023-09-19T11:36:10;5.57;;;1.83;;
25549;SDS011;13444;50.562;7.262;2023-09-19T11:46:32;3.72;;;1.80;;
25549;SDS011;13444;50.562;7.262;2023-09-19T11:49:05;8.05;;;2.38;;
25549;SDS011;13444;50.562;7.262;2023-09-19T11:51:41;7.10;;;1.90;;
25549;SDS011;13444;50.562;7.262;2023-09-19T11:54:12;5.00;;;1.77;;
25549;SDS011;13444;50.562;7.262;2023-09-19T11:56:48;8.20;;;2.35;;
25549;SDS011;13444;50.562;7.262;2023-09-19T11:59:29;8.43;;;2.35;;
25549;SDS011;13444;50.562;7.262;2023-09-19T12:04:37;7.30;;;1.75;;
25549;SDS011;13444;50.562;7.262;2023-09-19T12:07:13;4.50;;;1.70;;
25549;SDS011;13444;50.562;7.262;2023-09-19T12:09:44;5.82;;;2.03;;
25549;SDS011;13444;50.562;7.262;2023-09-19T12:12:24;9.07;;;1.75;;
25549;SDS011;13444;50.562;7.262;2023-09-19T12:14:53;7.55;;;1.95;;
25549;SDS011;13444;50.562;7.262;2023-09-19T12:17:20;5.32;;;1.90;;
25549;SDS011;13444;50.562;7.262;2023-09-19T12:19:52;5.78;;;1.52;;
25549;SDS011;13444;50.562;7.262;2023-09-19T12:22:18;7.25;;;1.70;;
25549;SDS011;13444;50.562;7.262;2023-09-19T12:24:45;7.38;;;1.73;;
25549;SDS011;13444;50.562;7.262;2023-09-19T12:27:12;5.45;;;1.60;;
25549;SDS011;13444;50.562;7.262;2023-09-19T12:29:42;7.13;;;1.90;;
25549;SDS011;13444;50.562;7.262;2023-09-19T12:32:14;5.63;;;1.75;;
25549;SDS011;13444;50.562;7.262;2023-09-19T12:34:42;5.22;;;1.60;;
25549;SDS011;13444;50.562;7.262;2023-09-19T12:37:08;4.32;;;1.77;;
25549;SDS011;13444;50.562;7.262;2023-09-19T12:39:44;5.35;;;2.13;;
25549;SDS011;13444;50.562;7.262;2023-09-19T12:42:21;6.40;;;1.58;;
25549;SDS011;13444;50.562;7.262;2023-09-19T12:44:49;7.10;;;1.65;;
25549;SDS011;13444;50.562;7.262;2023-09-19T12:47:20;5.60;;;1.63;;
25549;SDS011;13444;50.562;7.262;2023-09-19T12:52:50;5.45;;;1.65;;
25549;SDS011;13444;50.562;7.262;2023-09-19T12:55:28;5.97;;;1.90;;
25549;SDS011;13444;50.562;7.262;2023-09-19T12:58:13;5.45;;;1.48;;
25549;SDS011;13444;50.562;7.262;2023-09-19T13:00:43;5.85;;;1.85;;
25549;SDS011;13444;50.562;7.262;2023-09-19T13:03:17;4.60;;;1.63;;
25549;SDS011;13444;50.562;7.262;2023-09-19T13:06:02;6.10;;;1.80;;
25549;SDS011;13444;50.562;7.262;2023-09-19T13:08:34;7.07;;;1.80;;
25549;SDS011;13444;50.562;7.262;2023-09-19T13:11:10;4.60;;;1.42;;
25549;SDS011;13444;50.562;7.262;2023-09-19T13:13:41;4.63;;;1.55;;
25549;SDS011;13444;50.562;7.262;2023-09-19T13:16:10;6.80;;;1.58;;
25549;SDS011;13444;50.562;7.262;2023-09-19T13:18:42;6.53;;;1.77;;
25549;SDS011;13444;50.562;7.262;2023-09-19T13:21:10;7.60;;;1.60;;
25549;SDS011;13444;50.562;7.262;2023-09-19T13:24:19;7.20;;;1.80;;
25549;SDS011;13444;50.562;7.262;2023-09-19T13:26:50;5.97;;;1.70;;
25549;SDS011;13444;50.562;7.262;2023-09-19T13:29:16;6.55;;;1.92;;
25549;SDS011;13444;50.562;7.262;2023-09-19T13:31:46;4.60;;;1.55;;
25549;SDS011;13444;50.562;7.262;2023-09-19T13:34:17;7.25;;;1.48;;
25549;SDS011;13444;50.562;7.262;2023-09-19T13:36:46;3.80;;;1.40;;
25549;SDS011;13444;50.562;7.262;2023-09-19T13:39:18;5.20;;;1.58;;
25549;SDS011;13444;50.562;7.262;2023-09-19T13:41:44;5.47;;;1.75;;
25549;SDS011;13444;50.562;7.262;2023-09-19T13:44:11;5.78;;;1.60;;
25549;SDS011;13444;50.562;7.262;2023-09-19T13:46:37;4.45;;;1.60;;
25549;SDS011;13444;50.562;7.262;2023-09-19T13:49:03;5.05;;;1.63;;
25549;SDS011;13444;50.562;7.262;2023-09-19T13:51:29;4.50;;;1.40;;
25549;SDS011;13444;50.562;7.262;2023-09-19T13:53:58;5.60;;;1.33;;
25549;SDS011;13444;50.562;7.262;2023-09-19T13:56:26;8.98;;;1.80;;
25549;SDS011;13444;50.562;7.262;2023-09-19T13:58:53;4.80;;;1.27;;
25549;SDS011;13444;50.562;7.262;2023-09-19T14:01:19;4.00;;;1.63;;
25549;SDS011;13444;50.562;7.262;2023-09-19T14:03:45;4.78;;;1.42;;
25549;SDS011;13444;50.562;7.262;2023-09-19T14:06:14;4.30;;;1.48;;
25549;SDS011;13444;50.562;7.262;2023-09-19T14:08:40;4.05;;;1.40;;
25549;SDS011;13444;50.562;7.262;2023-09-19T14:11:06;7.80;;;1.48;;
25549;SDS011;13444;50.562;7.262;2023-09-19T14:13:33;5.10;;;1.75;;
25549;SDS011;13444;50.562;7.262;2023-09-19T14:16:02;5.85;;;1.50;;
25549;SDS011;13444;50.562;7.262;2023-09-19T14:18:33;4.65;;;1.48;;
25549;SDS011;13444;50.562;7.262;2023-09-19T14:21:02;4.13;;;1.40;;
25549;SDS011;13444;50.562;7.262;2023-09-19T14:23:29;3.17;;;1.48;;
25549;SDS011;13444;50.562;7.262;2023-09-19T14:26:00;3.67;;;1.50;;
25549;SDS011;13444;50.562;7.262;2023-09-19T14:28:26;7.13;;;1.50;;
25549;SDS011;13444;50.562;7.262;2023-09-19T14:30:52;3.97;;;1.48;;
25549;SDS011;13444;50.562;7.262;2023-09-19T14:33:17;5.53;;;1.20;;
25549;SDS011;13444;50.562;7.262;2023-09-19T14:35:43;4.32;;;1.55;;
25549;SDS011;13444;50.562;7.262;2023-09-19T14:38:08;3.83;;;1.27;;
25549;SDS011;13444;50.562;7.262;2023-09-19T14:40:34;4.00;;;1.27;;
25549;SDS011;13444;50.562;7.262;2023-09-19T14:43:01;5.07;;;1.55;;
25549;SDS011;13444;50.562;7.262;2023-09-19T14:45:27;6.95;;;1.60;;
25549;SDS011;13444;50.562;7.262;2023-09-19T14:47:53;5.22;;;1.42;;
25549;SDS011;13444;50.562;7.262;2023-09-19T14:50:21;5.65;;;1.80;;
25549;SDS011;13444;50.562;7.262;2023-09-19T14:52:47;3.30;;;1.42;;
25549;SDS011;13444;50.562;7.262;2023-09-19T14:55:14;4.97;;;1.30;;
25549;SDS011;13444;50.562;7.262;2023-09-19T14:57:40;3.97;;;1.30;;
25549;SDS011;13444;50.562;7.262;2023-09-19T15:00:07;6.25;;;1.38;;
25549;SDS011;13444;50.562;7.262;2023-09-19T15:02:37;6.00;;;1.40;;
25549;SDS011;13444;50.562;7.262;2023-09-19T15:05:05;7.88;;;1.50;;
25549;SDS011;13444;50.562;7.262;2023-09-19T15:07:33;5.65;;;1.42;;
25549;SDS011;13444;50.562;7.262;2023-09-19T15:10:01;4.53;;;1.40;;
25549;SDS011;13444;50.562;7.262;2023-09-19T15:12:27;6.13;;;1.55;;
25549;SDS011;13444;50.562;7.262;2023-09-19T15:14:54;8.07;;;1.98;;
25549;SDS011;13444;50.562;7.262;2023-09-19T15:17:19;3.90;;;1.67;;
25549;SDS011;13444;50.562;7.262;2023-09-19T15:19:45;4.13;;;1.42;;
25549;SDS011;13444;50.562;7.262;2023-09-19T15:22:11;4.45;;;1.80;;
25549;SDS011;13444;50.562;7.262;2023-09-19T15:24:37;4.63;;;1.50;;
25549;SDS011;13444;50.562;7.262;2023-09-19T15:27:03;3.30;;;1.20;;
25549;SDS011;13444;50.562;7.262;2023-09-19T15:29:29;7.10;;;1.67;;
25549;SDS011;13444;50.562;7.262;2023-09-19T15:31:55;3.97;;;1.20;;
25549;SDS011;13444;50.562;7.262;2023-09-19T15:34:23;3.58;;;1.45;;
25549;SDS011;13444;50.562;7.262;2023-09-19T15:36:50;5.65;;;1.30;;
25549;SDS011;13444;50.562;7.262;2023-09-19T15:39:16;4.82;;;1.38;;
25549;SDS011;13444;50.562;7.262;2023-09-19T15:41:44;4.45;;;1.42;;
25549;SDS011;13444;50.562;7.262;2023-09-19T15:44:11;7.10;;;1.50;;
25549;SDS011;13444;50.562;7.262;2023-09-19T15:46:38;5.30;;;1.35;;
25549;SDS011;13444;50.562;7.262;2023-09-19T15:49:04;4.57;;;1.48;;
25549;SDS011;13444;50.562;7.262;2023-09-19T15:51:29;3.92;;;1.13;;
25549;SDS011;13444;50.562;7.262;2023-09-19T15:53:55;3.05;;;1.48;;
25549;SDS011;13444;50.562;7.262;2023-09-19T15:56:22;6.05;;;1.73;;